KCPS/CPS METAR and TAF weather

Enter ICAO airport designator
Station Type Date Time Source
KCPS METAR 2018/07/16 23:53 UTC NOAA

KCPS 162353Z 36010KT 10SM CLR 31/23 A2993 RMK AO2 SLP131 T03110233 10339 20311 53003


Station Type Date Time Source
KCPS Decoded METAR 2018/07/16 23:53 UTC NOAA

ST LOUIS DOWNTOWN AIRPORT, IL, United States (KCPS) 38-34N 090-09W 126M
Jul 16, 2018 - 07:53 PM EDT / 2018.07.16 2353 UTC
Wind: from the N (360 degrees) at 12 MPH (10 KT):0
Visibility: 10 mile(s):0
Sky conditions: clear
Temperature: 88.0 F (31.1 C)
Heat index: 96.6 F (35.9 C):1
Dew Point: 73.9 F (23.3 C)
Relative Humidity: 63%
Pressure (altimeter): 29.93 in. Hg (1013 hPa)
Pressure tendency: 0.01 inches (0.3 hPa) higher than three hours ago
ob: KCPS 162353Z 36010KT 10SM CLR 31/23 A2993 RMK AO2 SLP131 T03110233 10339 20311 53003
cycle: 0

Station Type Date Time Source
KCPS TAF 2018/07/16 22:18 UTC NOAA

TAF
AMD KCPS 162217Z 1622/1718 35010KT P6SM SCT060
FM162315 35015G30KT P6SM BKN050
FM170100 VRB04KT P6SM SCT250


Example: see airport list